createdAt,value
2019-05-19T00:02:16.792Z,17.74
2019-05-19T00:04:48.356Z,17.70
2019-05-19T00:07:19.968Z,17.67
2019-05-19T00:09:51.481Z,17.66
2019-05-19T00:12:24.580Z,17.65
2019-05-19T00:14:56.306Z,17.64
2019-05-19T00:17:28.101Z,17.63
2019-05-19T00:20:00.345Z,17.61
2019-05-19T00:22:33.596Z,17.60
2019-05-19T00:25:06.518Z,17.57
2019-05-19T00:27:38.152Z,17.56
2019-05-19T00:30:11.308Z,17.57
2019-05-19T00:32:43.196Z,17.59
2019-05-19T00:35:14.884Z,17.58
2019-05-19T00:37:46.832Z,17.56
2019-05-19T00:40:18.636Z,17.49
2019-05-19T00:42:50.417Z,17.49
2019-05-19T00:45:22.434Z,17.46
2019-05-19T00:47:53.958Z,17.47
2019-05-19T00:50:25.758Z,17.45
2019-05-19T00:52:57.422Z,17.41
2019-05-19T00:55:31.178Z,17.34
2019-05-19T00:58:03.974Z,17.24
2019-05-19T01:00:35.559Z,17.20
2019-05-19T01:03:07.403Z,17.22
2019-05-19T01:05:39.106Z,17.24
2019-05-19T01:08:10.970Z,17.20
2019-05-19T01:10:42.914Z,17.15
2019-05-19T01:13:14.734Z,17.09
2019-05-19T01:15:46.556Z,17.01
2019-05-19T01:18:18.443Z,16.90
2019-05-19T01:20:50.357Z,16.81
2019-05-19T01:23:24.633Z,16.75
2019-05-19T01:25:56.523Z,16.68
2019-05-19T01:28:28.359Z,16.69
2019-05-19T01:31:00.144Z,16.70
2019-05-19T01:33:33.951Z,16.65
2019-05-19T01:36:05.828Z,16.62
2019-05-19T01:38:37.719Z,16.50
2019-05-19T01:41:09.485Z,16.47
2019-05-19T01:43:41.276Z,16.48
2019-05-19T01:46:13.389Z,16.48
2019-05-19T01:48:45.339Z,16.48
2019-05-19T01:51:17.078Z,16.45
2019-05-19T01:53:48.845Z,16.42
2019-05-19T01:56:20.862Z,16.37
2019-05-19T01:58:52.590Z,16.35
2019-05-19T02:01:24.384Z,16.33
2019-05-19T02:03:56.415Z,16.34
2019-05-19T02:06:28.218Z,16.37
2019-05-19T02:09:00.016Z,16.36
2019-05-19T02:11:31.766Z,16.32
2019-05-19T02:14:03.960Z,16.33
2019-05-19T02:16:35.776Z,16.34
2019-05-19T02:19:07.583Z,16.39
2019-05-19T02:21:39.562Z,16.44
2019-05-19T02:24:11.307Z,16.51
2019-05-19T02:26:43.069Z,16.55
2019-05-19T02:29:14.774Z,16.67
2019-05-19T02:31:47.381Z,16.83
2019-05-19T02:34:19.174Z,16.88
2019-05-19T02:36:50.977Z,17.02
2019-05-19T02:39:22.853Z,17.25
2019-05-19T02:41:54.872Z,17.49
2019-05-19T02:44:27.721Z,17.73
2019-05-19T02:47:01.039Z,17.91
2019-05-19T02:49:34.671Z,18.03
2019-05-19T02:52:07.062Z,18.19
2019-05-19T02:54:39.300Z,18.36
2019-05-19T02:57:11.706Z,18.53
2019-05-19T02:59:43.886Z,18.70
2019-05-19T03:02:16.771Z,18.89
2019-05-19T03:04:48.649Z,18.99
2019-05-19T03:07:20.351Z,19.05
2019-05-19T03:09:52.057Z,19.14
2019-05-19T03:12:23.833Z,19.17
2019-05-19T03:14:55.591Z,19.30
2019-05-19T03:17:27.273Z,19.42
2019-05-19T03:20:00.847Z,19.62
2019-05-19T03:22:35.158Z,19.84
2019-05-19T03:25:09.975Z,19.93
2019-05-19T03:27:42.131Z,20.14
2019-05-19T03:30:33.774Z,20.29
2019-05-19T03:33:10.743Z,20.54
2019-05-19T03:35:45.551Z,20.79
2019-05-19T03:38:19.377Z,20.75
2019-05-19T03:40:51.139Z,20.98
2019-05-19T03:43:22.843Z,21.23
2019-05-19T03:45:54.699Z,21.11
2019-05-19T03:48:26.581Z,21.27
2019-05-19T03:50:58.355Z,21.55
2019-05-19T03:53:31.490Z,21.63
2019-05-19T03:56:05.640Z,21.68
2019-05-19T03:58:38.026Z,21.99
2019-05-19T04:01:12.679Z,22.07
2019-05-19T04:03:45.592Z,22.33
2019-05-19T04:06:22.926Z,22.26
2019-05-19T04:08:55.629Z,22.47
2019-05-19T04:11:27.372Z,22.65
2019-05-19T04:13:59.169Z,22.70
2019-05-19T04:16:30.998Z,22.74
2019-05-19T04:19:02.806Z,22.78
2019-05-19T04:21:48.304Z,23.01
2019-05-19T04:24:07.848Z,23.19
2019-05-19T04:26:40.600Z,23.40
2019-05-19T04:29:12.305Z,23.57
2019-05-19T04:31:43.764Z,23.78
2019-05-19T04:34:15.354Z,23.69
2019-05-19T04:36:48.519Z,23.51
2019-05-19T04:39:20.071Z,23.49
2019-05-19T04:41:54.074Z,23.36
2019-05-19T04:44:26.872Z,23.38
2019-05-19T04:46:58.442Z,23.54
2019-05-19T04:49:29.996Z,23.63
2019-05-19T04:52:06.578Z,23.53
2019-05-19T04:54:34.767Z,23.58
2019-05-19T04:57:07.445Z,23.34
2019-05-19T04:59:38.943Z,23.33
2019-05-19T05:02:10.776Z,23.35
2019-05-19T05:04:42.452Z,23.22
2019-05-19T05:07:14.030Z,22.92
2019-05-19T05:09:45.788Z,22.53
2019-05-19T05:12:18.872Z,22.66
2019-05-19T05:14:51.780Z,22.88
2019-05-19T05:17:25.776Z,22.77
2019-05-19T05:19:58.888Z,22.47
2019-05-19T05:22:31.784Z,22.79
2019-05-19T05:25:04.730Z,22.75
2019-05-19T05:27:37.600Z,22.83
2019-05-19T05:30:09.989Z,22.53
2019-05-19T05:32:42.013Z,22.40
2019-05-19T05:35:17.616Z,22.33
2019-05-19T05:37:49.151Z,22.44
2019-05-19T05:40:21.693Z,22.49
2019-05-19T05:42:53.499Z,22.47
2019-05-19T05:45:25.168Z,22.56
2019-05-19T05:47:58.535Z,22.70
2019-05-19T05:50:30.053Z,22.83
2019-05-19T05:53:01.910Z,22.81
2019-05-19T05:55:34.730Z,22.87
2019-05-19T05:58:07.579Z,23.10
2019-05-19T06:00:42.192Z,23.10
2019-05-19T06:03:14.735Z,23.08
2019-05-19T06:05:48.020Z,23.14
2019-05-19T06:08:19.816Z,23.10
2019-05-19T06:14:39.420Z,23.66
2019-05-19T06:17:11.205Z,23.63
2019-05-19T06:19:42.781Z,24.03
2019-05-19T06:22:14.356Z,24.10
2019-05-19T06:24:45.987Z,24.19
2019-05-19T06:27:17.578Z,24.34
2019-05-19T06:29:50.576Z,24.41
2019-05-19T06:32:35.975Z,24.52
2019-05-19T06:35:08.223Z,24.51
2019-05-19T06:37:39.688Z,24.51
2019-05-19T06:40:12.707Z,24.56
2019-05-19T06:42:44.244Z,24.50
2019-05-19T06:45:16.124Z,24.50
2019-05-19T06:47:47.659Z,24.57
2019-05-19T06:50:19.348Z,24.57
2019-05-19T06:52:50.950Z,24.50
2019-05-19T06:55:22.576Z,24.64
2019-05-19T06:57:54.141Z,24.66
2019-05-19T07:00:27.642Z,24.74
2019-05-19T07:02:59.383Z,24.98
2019-05-19T07:05:31.483Z,24.92
2019-05-19T07:08:03.016Z,24.87
2019-05-19T07:10:34.666Z,24.99
2019-05-19T07:13:07.385Z,25.11
2019-05-19T07:15:39.090Z,24.78
2019-05-19T07:18:11.205Z,24.66
2019-05-19T07:20:42.720Z,24.74
2019-05-19T07:23:27.358Z,24.63
2019-05-19T07:25:48.140Z,24.63
2019-05-19T07:28:19.688Z,24.97
2019-05-19T07:30:51.170Z,24.97
2019-05-19T07:33:22.706Z,25.08
2019-05-19T07:35:54.222Z,25.03
2019-05-19T07:38:25.720Z,25.23
2019-05-19T07:40:58.543Z,25.36
2019-05-19T07:43:30.231Z,25.43
2019-05-19T07:46:01.872Z,25.54
2019-05-19T07:48:33.428Z,25.50
2019-05-19T07:51:04.987Z,25.47
2019-05-19T07:53:43.100Z,25.65
2019-05-19T07:56:10.723Z,25.74
2019-05-19T07:58:42.260Z,25.73
2019-05-19T08:01:14.059Z,25.94
2019-05-19T08:03:46.301Z,25.87
2019-05-19T08:06:17.910Z,26.48
2019-05-19T08:08:49.625Z,26.59
2019-05-19T08:11:21.114Z,26.37
2019-05-19T08:13:53.162Z,26.52
2019-05-19T08:16:24.691Z,26.59
2019-05-19T08:18:56.231Z,26.63
2019-05-19T08:21:27.852Z,26.53
2019-05-19T08:24:01.033Z,26.70
2019-05-19T08:26:32.542Z,26.86
2019-05-19T08:29:04.064Z,27.21
2019-05-19T08:31:37.022Z,27.18
2019-05-19T08:34:08.734Z,27.07
2019-05-19T08:36:40.326Z,27.13
2019-05-19T08:39:11.771Z,27.40
2019-05-19T08:41:43.255Z,26.98
2019-05-19T08:44:14.781Z,26.79
2019-05-19T08:46:46.260Z,26.84
2019-05-19T08:49:17.725Z,26.82
2019-05-19T08:51:50.237Z,26.91
2019-05-19T08:54:21.901Z,26.96
2019-05-19T08:56:53.348Z,26.98
2019-05-19T08:59:26.465Z,26.52
2019-05-19T09:01:59.343Z,26.39
2019-05-19T09:04:31.974Z,26.32
2019-05-19T09:07:04.050Z,26.33
2019-05-19T09:09:35.467Z,26.24
2019-05-19T09:12:06.938Z,26.17
2019-05-19T09:14:38.574Z,26.42
2019-05-19T09:17:10.064Z,26.36
2019-05-19T09:19:41.839Z,26.20
2019-05-19T09:22:13.326Z,26.40
2019-05-19T09:24:44.853Z,26.42
2019-05-19T09:27:16.354Z,26.37
2019-05-19T09:29:48.404Z,26.41
2019-05-19T09:32:19.898Z,26.52
2019-05-19T09:34:51.350Z,26.43
2019-05-19T09:37:22.892Z,26.59
2019-05-19T09:39:54.447Z,26.51
2019-05-19T09:42:27.583Z,26.52
2019-05-19T09:44:59.040Z,26.40
2019-05-19T09:47:31.446Z,26.32
2019-05-19T09:50:03.001Z,26.40
2019-05-19T09:52:34.394Z,26.34
2019-05-19T09:55:06.779Z,26.50
2019-05-19T09:57:38.321Z,26.54
2019-05-19T10:00:10.340Z,26.60
2019-05-19T10:02:41.959Z,26.59
2019-05-19T10:05:13.686Z,26.58
2019-05-19T10:07:48.348Z,26.62
2019-05-19T10:10:23.445Z,26.62
2019-05-19T10:12:54.282Z,26.74
2019-05-19T10:15:25.634Z,26.89
2019-05-19T10:17:57.540Z,26.81
2019-05-19T10:20:29.024Z,26.50
2019-05-19T10:23:00.609Z,26.49
2019-05-19T10:25:32.197Z,26.57
2019-05-19T10:28:03.692Z,26.57
2019-05-19T10:30:35.268Z,26.68
2019-05-19T10:33:06.782Z,26.73
2019-05-19T10:35:38.356Z,26.81
2019-05-19T10:38:09.898Z,26.69
2019-05-19T10:40:41.410Z,26.77
2019-05-19T10:43:15.882Z,26.92
2019-05-19T10:45:48.949Z,27.06
2019-05-19T10:48:20.552Z,26.89
2019-05-19T10:50:52.290Z,27.01
2019-05-19T10:53:24.681Z,26.98
2019-05-19T10:55:56.292Z,26.88
2019-05-19T10:58:31.961Z,26.95
2019-05-19T11:01:06.239Z,27.08
2019-05-19T11:03:38.389Z,27.01
2019-05-19T11:06:10.150Z,26.99
2019-05-19T11:08:41.685Z,27.03
2019-05-19T11:11:13.181Z,27.00
2019-05-19T11:13:44.722Z,27.21
2019-05-19T11:16:16.255Z,27.31
2019-05-19T11:18:47.748Z,27.19
2019-05-19T11:21:19.309Z,27.32
2019-05-19T11:23:50.790Z,27.18
2019-05-19T11:26:22.297Z,27.20
2019-05-19T11:28:55.893Z,27.14
2019-05-19T11:31:28.736Z,27.15
2019-05-19T11:34:00.447Z,27.08
2019-05-19T11:36:33.177Z,27.21
2019-05-19T11:39:07.020Z,27.39
2019-05-19T11:41:38.608Z,27.48
2019-05-19T11:44:10.123Z,27.50
2019-05-19T11:46:42.152Z,27.42
2019-05-19T11:49:13.683Z,27.36
2019-05-19T11:51:45.214Z,27.39
2019-05-19T11:54:16.724Z,27.40
2019-05-19T11:56:48.245Z,27.43
2019-05-19T11:59:19.777Z,27.53
2019-05-19T12:01:51.282Z,27.64
2019-05-19T12:04:22.796Z,27.53
2019-05-19T12:06:54.828Z,27.53
2019-05-19T12:09:26.314Z,27.50
2019-05-19T12:11:57.932Z,27.37
2019-05-19T12:14:29.492Z,27.49
2019-05-19T12:17:01.418Z,27.65
2019-05-19T12:19:33.485Z,27.65
2019-05-19T12:22:05.350Z,27.60
2019-05-19T12:24:36.859Z,27.58
2019-05-19T12:27:08.403Z,27.68
2019-05-19T12:29:39.901Z,27.61
2019-05-19T12:32:11.381Z,27.43
2019-05-19T12:34:45.526Z,27.49
2019-05-19T12:37:17.048Z,27.43
2019-05-19T12:39:48.505Z,27.45
2019-05-19T12:42:20.231Z,27.40
2019-05-19T12:44:53.482Z,27.44
2019-05-19T12:47:24.969Z,27.31
2019-05-19T12:49:56.480Z,27.30
2019-05-19T12:52:28.015Z,27.30
2019-05-19T12:54:59.563Z,27.34
2019-05-19T12:57:31.234Z,27.52
2019-05-19T13:00:02.784Z,27.46
2019-05-19T13:02:38.107Z,27.31
2019-05-19T13:05:10.222Z,27.34
2019-05-19T13:07:42.301Z,27.46
2019-05-19T13:10:20.217Z,27.59
2019-05-19T13:12:51.858Z,27.44
2019-05-19T13:15:23.503Z,27.39
2019-05-19T13:17:55.227Z,27.28
2019-05-19T13:20:26.867Z,27.36
2019-05-19T13:22:58.387Z,27.41
2019-05-19T13:25:29.810Z,27.39
2019-05-19T13:28:02.332Z,27.42
2019-05-19T13:30:33.868Z,27.52
2019-05-19T13:33:05.929Z,27.44
2019-05-19T13:35:38.910Z,27.41
2019-05-19T13:38:10.441Z,27.33
2019-05-19T13:40:41.945Z,27.24
2019-05-19T13:43:14.939Z,27.15
2019-05-19T13:45:46.451Z,27.25
2019-05-19T13:48:18.349Z,27.19
2019-05-19T13:50:49.864Z,27.21
2019-05-19T13:53:22.566Z,27.11
2019-05-19T13:55:54.080Z,27.09
2019-05-19T13:58:25.601Z,27.14
2019-05-19T14:00:57.103Z,27.14
2019-05-19T14:03:29.000Z,27.12
2019-05-19T14:06:00.472Z,27.15
2019-05-19T14:08:31.948Z,27.20
2019-05-19T14:11:06.005Z,27.10
2019-05-19T14:13:37.503Z,26.98
2019-05-19T14:16:08.940Z,26.94
2019-05-19T14:18:41.561Z,26.96
2019-05-19T14:21:13.076Z,26.91
2019-05-19T14:23:44.586Z,26.93
2019-05-19T14:26:17.715Z,26.80
2019-05-19T14:28:49.226Z,26.79
2019-05-19T14:31:20.722Z,26.78
2019-05-19T14:33:52.671Z,26.72
2019-05-19T14:36:24.860Z,26.71
2019-05-19T14:39:05.303Z,26.66
2019-05-19T14:41:36.754Z,26.57
2019-05-19T14:44:08.254Z,26.47
2019-05-19T14:46:39.784Z,26.50
2019-05-19T14:49:11.196Z,26.55
2019-05-19T14:51:42.702Z,26.50
2019-05-19T14:54:15.654Z,26.55
2019-05-19T14:56:47.275Z,26.52
2019-05-19T14:59:18.865Z,26.38
2019-05-19T15:01:50.366Z,26.38
2019-05-19T15:04:21.865Z,26.36
2019-05-19T15:06:53.376Z,26.41
2019-05-19T15:09:24.942Z,26.31
2019-05-19T15:11:56.449Z,26.26
2019-05-19T15:14:27.998Z,26.31
2019-05-19T15:16:59.528Z,26.19
2019-05-19T15:19:31.077Z,26.10
2019-05-19T15:22:02.574Z,26.09
2019-05-19T15:24:34.106Z,26.04
2019-05-19T15:27:05.569Z,26.00
2019-05-19T15:29:37.200Z,26.02
2019-05-19T15:32:08.707Z,25.91
2019-05-19T15:34:40.232Z,25.94
2019-05-19T15:37:12.065Z,25.85
2019-05-19T15:39:45.127Z,25.90
2019-05-19T15:42:16.635Z,25.81
2019-05-19T15:44:48.158Z,25.68
2019-05-19T15:47:20.226Z,25.69
2019-05-19T15:49:51.728Z,25.72
2019-05-19T15:52:23.254Z,25.59
2019-05-19T15:54:56.152Z,25.61
2019-05-19T15:57:28.728Z,25.51
2019-05-19T16:00:00.355Z,25.45
2019-05-19T16:02:34.549Z,25.46
2019-05-19T16:05:07.763Z,25.40
2019-05-19T16:07:39.269Z,25.40
2019-05-19T16:10:10.891Z,25.35
2019-05-19T16:12:42.375Z,25.21
2019-05-19T16:15:14.285Z,25.06
2019-05-19T16:17:45.796Z,25.07
2019-05-19T16:20:17.411Z,25.07
2019-05-19T16:22:49.026Z,24.96
2019-05-19T16:25:20.609Z,24.92
2019-05-19T16:27:52.474Z,24.84
2019-05-19T16:30:24.053Z,24.76
2019-05-19T16:32:55.562Z,24.73
2019-05-19T16:35:29.302Z,24.67
2019-05-19T16:38:02.246Z,24.63
2019-05-19T16:40:34.450Z,24.54
2019-05-19T16:43:07.879Z,24.42
2019-05-19T16:45:39.287Z,24.25
2019-05-19T16:48:10.765Z,24.19
2019-05-19T16:50:42.293Z,24.12
2019-05-19T16:53:14.423Z,24.01
2019-05-19T16:55:45.855Z,23.90
2019-05-19T16:58:21.478Z,23.87
2019-05-19T17:00:51.542Z,23.73
2019-05-19T17:03:23.039Z,23.70
2019-05-19T17:05:55.509Z,23.66
2019-05-19T17:08:27.038Z,23.58
2019-05-19T17:10:58.584Z,23.47
2019-05-19T17:13:30.176Z,23.39
2019-05-19T17:16:02.169Z,23.28
2019-05-19T17:18:34.037Z,23.22
2019-05-19T17:21:05.850Z,23.11
2019-05-19T17:23:38.878Z,23.04
2019-05-19T17:26:12.446Z,22.95
2019-05-19T17:28:59.600Z,22.94
2019-05-19T17:31:19.391Z,22.90
2019-05-19T17:33:56.657Z,22.83
2019-05-19T17:36:28.556Z,22.78
2019-05-19T17:39:00.509Z,22.67
2019-05-19T17:41:33.915Z,22.63
2019-05-19T17:44:06.054Z,22.55
2019-05-19T17:46:39.134Z,22.48
2019-05-19T17:49:10.621Z,22.45
2019-05-19T17:51:42.108Z,22.38
2019-05-19T17:54:13.612Z,22.37
2019-05-19T17:56:47.168Z,22.32
2019-05-19T17:59:18.987Z,22.23
2019-05-19T18:01:51.913Z,22.14
2019-05-19T18:04:23.408Z,22.09
2019-05-19T18:06:54.929Z,21.98
2019-05-19T18:09:26.929Z,21.98
2019-05-19T18:11:58.438Z,21.83
2019-05-19T18:14:30.946Z,21.76
2019-05-19T18:17:02.464Z,21.58
2019-05-19T18:19:33.964Z,21.53
2019-05-19T18:22:06.480Z,21.51
2019-05-19T18:24:39.636Z,21.50
2019-05-19T18:27:11.363Z,21.48
2019-05-19T18:29:46.214Z,21.43
2019-05-19T18:32:17.740Z,21.36
2019-05-19T18:34:49.242Z,21.28
2019-05-19T18:37:22.495Z,21.20
2019-05-19T18:39:54.031Z,21.19
2019-05-19T18:42:25.894Z,21.05
2019-05-19T18:44:57.876Z,20.86
2019-05-19T18:47:29.382Z,20.87
2019-05-19T18:50:01.079Z,20.80
2019-05-19T18:52:33.066Z,20.74
2019-05-19T18:55:07.563Z,20.76
2019-05-19T18:57:39.227Z,20.69
2019-05-19T19:00:12.009Z,20.71
2019-05-19T19:02:47.876Z,20.76
2019-05-19T19:05:18.197Z,20.69
2019-05-19T19:07:52.069Z,20.70
2019-05-19T19:10:23.592Z,20.70
2019-05-19T19:12:55.120Z,20.75
2019-05-19T19:15:26.715Z,20.73
2019-05-19T19:17:58.249Z,20.73
2019-05-19T19:20:29.932Z,20.68
2019-05-19T19:23:01.762Z,20.66
2019-05-19T19:25:33.409Z,20.53
2019-05-19T19:28:04.917Z,20.51
2019-05-19T19:30:36.635Z,20.55
2019-05-19T19:33:09.990Z,20.57
2019-05-19T19:35:43.628Z,20.53
2019-05-19T19:38:15.771Z,20.44
2019-05-19T19:40:48.811Z,20.44
2019-05-19T19:43:21.000Z,20.44
2019-05-19T19:45:52.513Z,20.43
2019-05-19T19:48:24.540Z,20.36
2019-05-19T19:50:57.496Z,20.36
2019-05-19T19:53:31.471Z,20.41
2019-05-19T19:56:05.102Z,20.34
2019-05-19T19:58:36.656Z,20.24
2019-05-19T20:01:10.692Z,20.21
2019-05-19T20:03:42.749Z,20.19
2019-05-19T20:06:17.904Z,20.25
2019-05-19T20:08:51.061Z,20.24
2019-05-19T20:11:25.515Z,20.17
2019-05-19T20:13:58.716Z,20.10
2019-05-19T20:16:32.514Z,20.14
2019-05-19T20:19:04.000Z,20.17
2019-05-19T20:21:36.420Z,20.17
2019-05-19T20:24:07.877Z,20.14
2019-05-19T20:26:39.370Z,20.09
2019-05-19T20:29:16.231Z,20.09
2019-05-19T20:31:47.656Z,20.11
2019-05-19T20:34:19.093Z,20.04
2019-05-19T20:36:50.602Z,19.96
2019-05-19T20:39:22.031Z,19.89
2019-05-19T20:41:53.592Z,19.92
2019-05-19T20:44:25.214Z,19.83
2019-05-19T20:46:56.682Z,19.84
2019-05-19T20:49:28.207Z,19.82
2019-05-19T20:52:01.261Z,19.82
2019-05-19T20:54:33.158Z,19.76
2019-05-19T20:57:06.328Z,19.71
2019-05-19T20:59:38.958Z,19.56
2019-05-19T21:02:10.779Z,19.47
2019-05-19T21:04:43.999Z,19.44
2019-05-19T21:07:15.600Z,19.45
2019-05-19T21:09:47.121Z,19.28
2019-05-19T21:12:18.733Z,19.26
2019-05-19T21:14:50.245Z,19.31
2019-05-19T21:17:21.812Z,19.38
2019-05-19T21:19:54.975Z,19.44
2019-05-19T21:22:26.568Z,19.44
2019-05-19T21:24:58.095Z,19.46
2019-05-19T21:27:29.626Z,19.45
2019-05-19T21:30:01.200Z,19.38
2019-05-19T21:32:32.818Z,19.40
2019-05-19T21:35:06.514Z,19.38
2019-05-19T21:37:38.046Z,19.35
2019-05-19T21:40:09.799Z,19.23
2019-05-19T21:42:41.223Z,19.17
2019-05-19T21:45:12.819Z,19.14
2019-05-19T21:47:44.313Z,19.16
2019-05-19T21:50:15.967Z,19.14
2019-05-19T21:52:47.680Z,19.17
2019-05-19T21:55:19.179Z,19.19
2019-05-19T21:57:50.846Z,19.17
2019-05-19T22:00:24.023Z,19.12
2019-05-19T22:02:57.354Z,19.10
2019-05-19T22:05:28.850Z,19.04
2019-05-19T22:08:04.523Z,19.00
2019-05-19T22:10:36.060Z,18.95
2019-05-19T22:13:07.509Z,18.94
2019-05-19T22:15:39.002Z,18.91
2019-05-19T22:18:10.536Z,18.90
2019-05-19T22:20:42.104Z,18.85
2019-05-19T22:23:13.588Z,18.78
2019-05-19T22:25:45.091Z,18.74
2019-05-19T22:28:16.627Z,18.73
2019-05-19T22:30:48.701Z,18.65
2019-05-19T22:33:20.154Z,18.58
2019-05-19T22:35:51.664Z,18.63
2019-05-19T22:38:23.079Z,18.58
2019-05-19T22:40:54.503Z,18.55
2019-05-19T22:43:27.647Z,18.51
2019-05-19T22:45:59.252Z,18.51
2019-05-19T22:48:31.876Z,18.46
2019-05-19T22:51:03.384Z,18.50
2019-05-19T22:53:35.813Z,18.50
2019-05-19T22:56:07.464Z,18.40
2019-05-19T22:58:41.574Z,18.39
2019-05-19T23:01:12.075Z,18.35
2019-05-19T23:03:43.514Z,18.21
2019-05-19T23:06:14.952Z,18.15
2019-05-19T23:08:46.466Z,18.16
2019-05-19T23:11:17.897Z,18.10
2019-05-19T23:13:49.336Z,18.10
2019-05-19T23:16:20.845Z,17.99
2019-05-19T23:18:52.537Z,17.92
2019-05-19T23:21:23.974Z,17.87
2019-05-19T23:23:55.397Z,17.84
2019-05-19T23:26:26.845Z,17.90
2019-05-19T23:28:58.289Z,17.71
2019-05-19T23:31:29.839Z,17.66
2019-05-19T23:34:01.387Z,17.55
2019-05-19T23:36:32.831Z,17.57
2019-05-19T23:39:06.523Z,17.46
2019-05-19T23:41:39.086Z,17.35
2019-05-19T23:44:12.932Z,17.34
2019-05-19T23:46:46.160Z,17.32
2019-05-19T23:49:18.613Z,17.34
2019-05-19T23:51:50.104Z,17.30
2019-05-19T23:54:22.792Z,17.29
2019-05-19T23:56:54.317Z,17.31
2019-05-19T23:59:27.999Z,17.32
